sensor_id;sensor_type;location;lat;lon;timestamp;pressure;altitude;pressure_sealevel;temperature;humidity
63115;BME280;49208;50.874;6.466;2022-09-21T05:02:01;101484.69;;;4.50;100.00
63115;BME280;49208;50.874;6.466;2022-09-21T05:04:26;101482.91;;;4.47;100.00
63115;BME280;49208;50.874;6.466;2022-09-21T05:06:51;101486.41;;;4.44;100.00
63115;BME280;49208;50.874;6.466;2022-09-21T05:09:18;101486.41;;;4.43;100.00
63115;BME280;49208;50.874;6.466;2022-09-21T05:12:01;101489.88;;;4.42;100.00
63115;BME280;49208;50.874;6.466;2022-09-21T05:14:27;101490.75;;;4.39;100.00
63115;BME280;49208;50.874;6.466;2022-09-21T05:16:52;101495.16;;;4.39;100.00
63115;BME280;49208;50.874;6.466;2022-09-21T05:19:17;101502.19;;;4.38;100.00
63115;BME280;49208;50.874;6.466;2022-09-21T05:21:43;101500.44;;;4.39;100.00
63115;BME280;49208;50.874;6.466;2022-09-21T05:24:08;101499.56;;;4.38;100.00
63115;BME280;49208;50.874;6.466;2022-09-21T05:26:34;101502.19;;;4.40;100.00
63115;BME280;49208;50.874;6.466;2022-09-21T05:28:59;101505.72;;;4.42;100.00
63115;BME280;49208;50.874;6.466;2022-09-21T05:31:42;101509.25;;;4.42;100.00
63115;BME280;49208;50.874;6.466;2022-09-21T05:34:46;101512.75;;;4.43;100.00
63115;BME280;49208;50.874;6.466;2022-09-21T05:40:06;101512.81;;;4.49;100.00
63115;BME280;49208;50.874;6.466;2022-09-21T05:42:31;101522.50;;;4.55;100.00
63115;BME280;49208;50.874;6.466;2022-09-21T05:44:57;101520.78;;;4.60;100.00
63115;BME280;49208;50.874;6.466;2022-09-21T05:50:36;101518.19;;;4.71;100.00
63115;BME280;49208;50.874;6.466;2022-09-21T05:55:55;101510.38;;;4.86;100.00
63115;BME280;49208;50.874;6.466;2022-09-21T06:03:51;101516.63;;;5.00;100.00
63115;BME280;49208;50.874;6.466;2022-09-21T06:06:18;101520.16;;;5.07;100.00
63115;BME280;49208;50.874;6.466;2022-09-21T06:08:44;101526.38;;;5.17;100.00
63115;BME280;49208;50.874;6.466;2022-09-21T06:11:09;101530.78;;;5.24;100.00
63115;BME280;49208;50.874;6.466;2022-09-21T06:13:35;101532.56;;;5.34;100.00
63115;BME280;49208;50.874;6.466;2022-09-21T06:16:02;101531.72;;;5.49;100.00
63115;BME280;49208;50.874;6.466;2022-09-21T06:18:28;101537.94;;;5.59;100.00
63115;BME280;49208;50.874;6.466;2022-09-21T06:20:54;101536.19;;;5.70;100.00
63115;BME280;49208;50.874;6.466;2022-09-21T06:23:19;101539.72;;;5.80;100.00
63115;BME280;49208;50.874;6.466;2022-09-21T06:25:52;101543.25;;;5.86;100.00
63115;BME280;49208;50.874;6.466;2022-09-21T06:28:17;101545.09;;;6.00;100.00
63115;BME280;49208;50.874;6.466;2022-09-21T06:30:42;101543.31;;;6.22;100.00
63115;BME280;49208;50.874;6.466;2022-09-21T06:33:09;101544.19;;;6.55;100.00
63115;BME280;49208;50.874;6.466;2022-09-21T06:35:35;101536.09;;;7.05;100.00
63115;BME280;49208;50.874;6.466;2022-09-21T06:38:03;101549.09;;;7.59;100.00
63115;BME280;49208;50.874;6.466;2022-09-21T06:40:30;101532.84;;;8.16;100.00
63115;BME280;49208;50.874;6.466;2022-09-21T06:42:57;101538.88;;;9.20;100.00
63115;BME280;49208;50.874;6.466;2022-09-21T06:45:24;101542.78;;;10.19;98.13
63115;BME280;49208;50.874;6.466;2022-09-21T06:47:50;101534.84;;;11.15;91.88
63115;BME280;49208;50.874;6.466;2022-09-21T06:50:15;101541.22;;;11.90;88.17
63115;BME280;49208;50.874;6.466;2022-09-21T06:52:41;101536.19;;;12.50;84.43
63115;BME280;49208;50.874;6.466;2022-09-21T06:55:07;101537.63;;;13.29;81.24
63115;BME280;49208;50.874;6.466;2022-09-21T06:57:34;101538.19;;;14.25;78.37
63115;BME280;49208;50.874;6.466;2022-09-21T06:59:59;101535.34;;;15.06;73.04
63115;BME280;49208;50.874;6.466;2022-09-21T07:02:25;101534.50;;;15.99;68.84
63115;BME280;49208;50.874;6.466;2022-09-21T07:04:50;101530.72;;;16.67;64.38
63115;BME280;49208;50.874;6.466;2022-09-21T07:07:15;101533.84;;;17.18;62.47
63115;BME280;49208;50.874;6.466;2022-09-21T07:09:41;101538.00;;;17.84;58.48
63115;BME280;49208;50.874;6.466;2022-09-21T07:12:06;101535.88;;;18.44;54.92
63115;BME280;49208;50.874;6.466;2022-09-21T07:14:32;101535.94;;;18.43;54.71
63115;BME280;49208;50.874;6.466;2022-09-21T07:16:57;101536.75;;;18.45;54.31
63115;BME280;49208;50.874;6.466;2022-09-21T07:19:23;101548.22;;;18.85;53.36
63115;BME280;49208;50.874;6.466;2022-09-21T07:21:49;101535.22;;;19.42;52.83
63115;BME280;49208;50.874;6.466;2022-09-21T07:24:16;101534.41;;;19.89;50.37
63115;BME280;49208;50.874;6.466;2022-09-21T07:26:42;101541.78;;;20.17;49.03
63115;BME280;49208;50.874;6.466;2022-09-21T07:29:07;101537.13;;;20.35;49.07
63115;BME280;49208;50.874;6.466;2022-09-21T07:31:33;101535.44;;;20.79;48.44
63115;BME280;49208;50.874;6.466;2022-09-21T07:33:59;101535.19;;;21.41;46.15
63115;BME280;49208;50.874;6.466;2022-09-21T07:36:24;101529.22;;;22.19;44.50
63115;BME280;49208;50.874;6.466;2022-09-21T07:38:50;101531.66;;;22.64;42.40
63115;BME280;49208;50.874;6.466;2022-09-21T07:41:15;101538.59;;;22.55;42.64
63115;BME280;49208;50.874;6.466;2022-09-21T07:43:41;101530.06;;;22.99;43.70
63115;BME280;49208;50.874;6.466;2022-09-21T07:46:08;101532.44;;;23.43;41.54
63115;BME280;49208;50.874;6.466;2022-09-21T07:48:34;101526.25;;;23.53;40.59
63115;BME280;49208;50.874;6.466;2022-09-21T07:51:04;101521.47;;;24.18;40.22
63115;BME280;49208;50.874;6.466;2022-09-21T07:53:34;101525.47;;;24.49;41.00
63115;BME280;49208;50.874;6.466;2022-09-21T07:56:11;101522.19;;;24.79;40.61
63115;BME280;49208;50.874;6.466;2022-09-21T07:58:38;101522.88;;;24.59;42.68
63115;BME280;49208;50.874;6.466;2022-09-21T08:01:23;101524.84;;;24.57;39.19
63115;BME280;49208;50.874;6.466;2022-09-21T08:03:49;101527.88;;;24.76;39.09
63115;BME280;49208;50.874;6.466;2022-09-21T08:06:15;101530.75;;;24.97;39.08
63115;BME280;49208;50.874;6.466;2022-09-21T08:08:40;101528.63;;;24.90;39.15
63115;BME280;49208;50.874;6.466;2022-09-21T08:11:06;101532.00;;;25.05;38.21
63115;BME280;49208;50.874;6.466;2022-09-21T08:13:32;101538.22;;;25.18;37.91
63115;BME280;49208;50.874;6.466;2022-09-21T08:16:01;101529.31;;;25.50;39.75
63115;BME280;49208;50.874;6.466;2022-09-21T08:18:28;101530.84;;;25.43;38.16
63115;BME280;49208;50.874;6.466;2022-09-21T08:20:54;101537.22;;;25.19;38.49
63115;BME280;49208;50.874;6.466;2022-09-21T08:23:20;101536.00;;;25.23;40.49
63115;BME280;49208;50.874;6.466;2022-09-21T08:25:45;101530.94;;;25.41;41.49
63115;BME280;49208;50.874;6.466;2022-09-21T08:28:11;101536.03;;;25.57;37.15
63115;BME280;49208;50.874;6.466;2022-09-21T08:30:36;101539.09;;;25.52;39.17
63115;BME280;49208;50.874;6.466;2022-09-21T08:33:01;101545.19;;;25.45;37.49
63115;BME280;49208;50.874;6.466;2022-09-21T08:35:27;101542.63;;;24.74;39.10
63115;BME280;49208;50.874;6.466;2022-09-21T08:37:53;101539.25;;;24.46;43.94
63115;BME280;49208;50.874;6.466;2022-09-21T08:40:19;101535.97;;;24.54;43.24
63115;BME280;49208;50.874;6.466;2022-09-21T08:42:59;101541.03;;;24.23;43.00
63115;BME280;49208;50.874;6.466;2022-09-21T08:45:33;101537.38;;;23.74;44.82
63115;BME280;49208;50.874;6.466;2022-09-21T08:48:03;101534.94;;;23.46;45.46
63115;BME280;49208;50.874;6.466;2022-09-21T08:50:48;101530.94;;;22.74;47.04
63115;BME280;49208;50.874;6.466;2022-09-21T08:53:36;101537.00;;;22.25;50.60
63115;BME280;49208;50.874;6.466;2022-09-21T08:56:03;101526.69;;;21.62;48.44
63115;BME280;49208;50.874;6.466;2022-09-21T08:58:30;101527.97;;;20.68;49.27
63115;BME280;49208;50.874;6.466;2022-09-21T09:01:05;101538.22;;;20.47;54.07
63115;BME280;49208;50.874;6.466;2022-09-21T09:20:09;101525.41;;;18.90;60.75
63115;BME280;49208;50.874;6.466;2022-09-21T09:25:36;101535.16;;;18.41;59.62
63115;BME280;49208;50.874;6.466;2022-09-21T09:30:37;101536.50;;;18.32;61.87
63115;BME280;49208;50.874;6.466;2022-09-21T09:33:22;101535.09;;;18.25;59.30
63115;BME280;49208;50.874;6.466;2022-09-21T09:35:57;101532.22;;;18.28;64.26
63115;BME280;49208;50.874;6.466;2022-09-21T09:52:29;101531.59;;;18.40;60.66
63115;BME280;49208;50.874;6.466;2022-09-21T09:54:55;101526.53;;;18.51;58.92
63115;BME280;49208;50.874;6.466;2022-09-21T09:57:26;101534.16;;;18.61;60.58
63115;BME280;49208;50.874;6.466;2022-09-21T09:59:55;101524.72;;;18.34;58.75
63115;BME280;49208;50.874;6.466;2022-09-21T10:02:25;101525.81;;;17.94;57.13
63115;BME280;49208;50.874;6.466;2022-09-21T10:04:59;101525.09;;;17.33;58.93
63115;BME280;49208;50.874;6.466;2022-09-21T10:07:38;101516.88;;;16.97;63.03
63115;BME280;49208;50.874;6.466;2022-09-21T10:12:56;101520.03;;;16.03;62.25
63115;BME280;49208;50.874;6.466;2022-09-21T10:15:28;101522.28;;;15.68;64.64
63115;BME280;49208;50.874;6.466;2022-09-21T10:18:10;101516.34;;;15.60;65.84
63115;BME280;49208;50.874;6.466;2022-09-21T10:20:51;101517.72;;;15.70;65.55
63115;BME280;49208;50.874;6.466;2022-09-21T10:23:18;101516.47;;;16.02;64.93
63115;BME280;49208;50.874;6.466;2022-09-21T10:25:44;101512.94;;;16.22;63.80
63115;BME280;49208;50.874;6.466;2022-09-21T10:28:11;101520.69;;;16.30;65.08
63115;BME280;49208;50.874;6.466;2022-09-21T10:30:37;101514.84;;;16.41;65.90
63115;BME280;49208;50.874;6.466;2022-09-21T10:33:14;101509.44;;;16.63;64.79
63115;BME280;49208;50.874;6.466;2022-09-21T10:35:51;101511.13;;;16.86;63.80
63115;BME280;49208;50.874;6.466;2022-09-21T10:38:24;101516.25;;;16.70;61.51
63115;BME280;49208;50.874;6.466;2022-09-21T10:40:53;101518.19;;;16.25;62.34
63115;BME280;49208;50.874;6.466;2022-09-21T10:43:34;101507.34;;;16.06;64.02
63115;BME280;49208;50.874;6.466;2022-09-21T10:46:00;101513.47;;;15.88;64.21
63115;BME280;49208;50.874;6.466;2022-09-21T10:48:27;101509.88;;;15.65;62.21
63115;BME280;49208;50.874;6.466;2022-09-21T10:50:54;101513.28;;;15.47;63.98
63115;BME280;49208;50.874;6.466;2022-09-21T10:53:26;101516.59;;;15.30;65.25
63115;BME280;49208;50.874;6.466;2022-09-21T10:58:26;101501.88;;;15.64;65.90
63115;BME280;49208;50.874;6.466;2022-09-21T11:00:55;101506.84;;;15.74;66.86
63115;BME280;49208;50.874;6.466;2022-09-21T11:03:32;101505.59;;;15.83;65.13
63115;BME280;49208;50.874;6.466;2022-09-21T11:06:25;101498.13;;;15.68;63.91
63115;BME280;49208;50.874;6.466;2022-09-21T11:08:58;101506.41;;;15.62;65.01
63115;BME280;49208;50.874;6.466;2022-09-21T11:16:55;101499.25;;;15.62;63.76
63115;BME280;49208;50.874;6.466;2022-09-21T11:21:54;101502.19;;;15.32;62.67
63115;BME280;49208;50.874;6.466;2022-09-21T11:24:42;101507.75;;;15.28;63.56
63115;BME280;49208;50.874;6.466;2022-09-21T11:35:34;101495.03;;;15.09;61.49
63115;BME280;49208;50.874;6.466;2022-09-21T11:38:11;101498.13;;;15.22;62.59
63115;BME280;49208;50.874;6.466;2022-09-21T11:51:58;101483.59;;;16.17;61.29
63115;BME280;49208;50.874;6.466;2022-09-21T12:00:09;101471.84;;;16.61;55.84
63115;BME280;49208;50.874;6.466;2022-09-21T12:05:23;101465.22;;;17.09;55.52
63115;BME280;49208;50.874;6.466;2022-09-21T12:18:50;101455.25;;;17.30;53.57
63115;BME280;49208;50.874;6.466;2022-09-21T12:21:24;101450.53;;;16.98;53.22
63115;BME280;49208;50.874;6.466;2022-09-21T12:26:39;101444.66;;;16.48;56.41
63115;BME280;49208;50.874;6.466;2022-09-21T12:32:00;101443.47;;;16.74;55.98
63115;BME280;49208;50.874;6.466;2022-09-21T12:34:33;101451.69;;;16.92;54.98
63115;BME280;49208;50.874;6.466;2022-09-21T12:37:16;101446.88;;;16.99;52.93
63115;BME280;49208;50.874;6.466;2022-09-21T12:39:48;101441.44;;;16.80;53.14
63115;BME280;49208;50.874;6.466;2022-09-21T12:44:52;101443.84;;;17.06;53.71
63115;BME280;49208;50.874;6.466;2022-09-21T12:47:28;101440.94;;;17.11;52.22
63115;BME280;49208;50.874;6.466;2022-09-21T12:49:58;101437.66;;;17.23;54.26
63115;BME280;49208;50.874;6.466;2022-09-21T12:52:27;101430.16;;;17.30;53.14
63115;BME280;49208;50.874;6.466;2022-09-21T12:57:45;101431.63;;;17.37;52.20
63115;BME280;49208;50.874;6.466;2022-09-21T13:00:17;101426.53;;;17.50;51.55
63115;BME280;49208;50.874;6.466;2022-09-21T13:02:45;101429.75;;;17.39;50.10
63115;BME280;49208;50.874;6.466;2022-09-21T13:08:23;101422.44;;;17.60;49.45
63115;BME280;49208;50.874;6.466;2022-09-21T13:10:58;101410.44;;;17.48;48.75
63115;BME280;49208;50.874;6.466;2022-09-21T13:15:56;101409.94;;;17.40;48.26
63115;BME280;49208;50.874;6.466;2022-09-21T13:18:27;101414.22;;;17.44;50.97
63115;BME280;49208;50.874;6.466;2022-09-21T13:20:54;101417.16;;;17.40;49.28
63115;BME280;49208;50.874;6.466;2022-09-21T13:23:34;101413.38;;;17.44;49.93
63115;BME280;49208;50.874;6.466;2022-09-21T13:26:04;101404.50;;;17.42;49.15
63115;BME280;49208;50.874;6.466;2022-09-21T13:28:40;101409.63;;;17.46;49.27
63115;BME280;49208;50.874;6.466;2022-09-21T13:34:05;101402.16;;;17.34;48.51
63115;BME280;49208;50.874;6.466;2022-09-21T13:36:34;101400.63;;;17.28;49.65
63115;BME280;49208;50.874;6.466;2022-09-21T13:39:18;101396.78;;;17.34;48.84
63115;BME280;49208;50.874;6.466;2022-09-21T13:41:44;101399.41;;;17.35;48.44
63115;BME280;49208;50.874;6.466;2022-09-21T13:44:40;101401.22;;;17.35;49.34
63115;BME280;49208;50.874;6.466;2022-09-21T13:47:07;101394.88;;;17.36;48.64
63115;BME280;49208;50.874;6.466;2022-09-21T13:49:42;101390.59;;;17.32;48.88
63115;BME280;49208;50.874;6.466;2022-09-21T13:59:40;101385.38;;;17.29;48.59
63115;BME280;49208;50.874;6.466;2022-09-21T14:04:51;101380.94;;;17.09;48.00
63115;BME280;49208;50.874;6.466;2022-09-21T14:07:17;101373.41;;;16.98;46.68
63115;BME280;49208;50.874;6.466;2022-09-21T14:10:04;101372.06;;;17.07;48.52
63115;BME280;49208;50.874;6.466;2022-09-21T14:12:38;101365.03;;;17.04;47.17
63115;BME280;49208;50.874;6.466;2022-09-21T14:17:44;101377.91;;;17.16;46.62
63115;BME280;49208;50.874;6.466;2022-09-21T14:20:30;101372.41;;;17.18;46.30
63115;BME280;49208;50.874;6.466;2022-09-21T14:25:53;101368.50;;;17.25;45.77
63115;BME280;49208;50.874;6.466;2022-09-21T14:31:05;101366.44;;;17.30;47.48
63115;BME280;49208;50.874;6.466;2022-09-21T14:33:36;101361.66;;;17.18;44.99
63115;BME280;49208;50.874;6.466;2022-09-21T14:36:07;101360.22;;;17.11;45.48
63115;BME280;49208;50.874;6.466;2022-09-21T14:38:46;101364.56;;;17.13;45.02
63115;BME280;49208;50.874;6.466;2022-09-21T14:41:18;101356.22;;;17.20;46.61
63115;BME280;49208;50.874;6.466;2022-09-21T14:43:50;101360.72;;;17.19;45.17
63115;BME280;49208;50.874;6.466;2022-09-21T14:46:38;101362.63;;;17.17;45.63
63115;BME280;49208;50.874;6.466;2022-09-21T15:02:25;101338.50;;;16.96;45.56
63115;BME280;49208;50.874;6.466;2022-09-21T15:10:44;101330.16;;;16.84;46.32
63115;BME280;49208;50.874;6.466;2022-09-21T15:13:48;101331.34;;;16.76;45.88
63115;BME280;49208;50.874;6.466;2022-09-21T15:16:44;101324.59;;;16.68;44.74
63115;BME280;49208;50.874;6.466;2022-09-21T15:19:23;101317.03;;;16.57;43.19
63115;BME280;49208;50.874;6.466;2022-09-21T15:22:10;101316.94;;;16.40;43.23
63115;BME280;49208;50.874;6.466;2022-09-21T15:24:52;101317.03;;;16.17;45.93
63115;BME280;49208;50.874;6.466;2022-09-21T15:27:19;101318.81;;;15.98;46.29
63115;BME280;49208;50.874;6.466;2022-09-21T15:29:52;101317.53;;;15.86;46.97
63115;BME280;49208;50.874;6.466;2022-09-21T15:34:59;101317.53;;;15.86;47.06
63115;BME280;49208;50.874;6.466;2022-09-21T15:37:28;101315.31;;;15.96;46.74
63115;BME280;49208;50.874;6.466;2022-09-21T15:40:00;101310.75;;;15.98;47.90
63115;BME280;49208;50.874;6.466;2022-09-21T15:42:26;101317.84;;;15.99;47.91
63115;BME280;49208;50.874;6.466;2022-09-21T15:45:09;101315.19;;;15.99;46.02
63115;BME280;49208;50.874;6.466;2022-09-21T15:47:37;101304.31;;;16.02;47.06
63115;BME280;49208;50.874;6.466;2022-09-21T15:50:11;101315.91;;;16.03;45.26
63115;BME280;49208;50.874;6.466;2022-09-21T15:52:40;101311.41;;;16.03;45.28
63115;BME280;49208;50.874;6.466;2022-09-21T15:55:15;101314.84;;;16.07;46.31
63115;BME280;49208;50.874;6.466;2022-09-21T15:57:50;101311.34;;;16.05;46.69
63115;BME280;49208;50.874;6.466;2022-09-21T16:00:21;101313.22;;;16.03;47.43
63115;BME280;49208;50.874;6.466;2022-09-21T16:02:55;101309.84;;;15.98;49.19
63115;BME280;49208;50.874;6.466;2022-09-21T16:05:42;101308.25;;;15.93;48.53
63115;BME280;49208;50.874;6.466;2022-09-21T16:08:20;101308.59;;;15.86;47.97
63115;BME280;49208;50.874;6.466;2022-09-21T16:10:50;101310.34;;;15.87;45.90
63115;BME280;49208;50.874;6.466;2022-09-21T16:13:18;101313.19;;;15.84;46.67
63115;BME280;49208;50.874;6.466;2022-09-21T16:16:13;101308.06;;;15.78;47.05
63115;BME280;49208;50.874;6.466;2022-09-21T16:18:50;101304.75;;;15.71;47.33
63115;BME280;49208;50.874;6.466;2022-09-21T16:21:24;101309.50;;;15.64;46.98
63115;BME280;49208;50.874;6.466;2022-09-21T16:23:53;101309.03;;;15.54;47.64
63115;BME280;49208;50.874;6.466;2022-09-21T16:26:26;101309.59;;;15.41;48.78
63115;BME280;49208;50.874;6.466;2022-09-21T16:29:24;101305.75;;;15.26;48.83
63115;BME280;49208;50.874;6.466;2022-09-21T16:31:51;101310.63;;;15.16;49.11
63115;BME280;49208;50.874;6.466;2022-09-21T16:34:38;101316.59;;;15.01;49.89
63115;BME280;49208;50.874;6.466;2022-09-21T16:39:44;101317.63;;;14.74;50.52
63115;BME280;49208;50.874;6.466;2022-09-21T16:42:10;101314.56;;;14.62;51.93
63115;BME280;49208;50.874;6.466;2022-09-21T16:44:36;101318.59;;;14.48;55.43
63115;BME280;49208;50.874;6.466;2022-09-21T16:47:29;101320.16;;;14.30;57.04
63115;BME280;49208;50.874;6.466;2022-09-21T16:49:57;101319.84;;;14.14;58.89
63115;BME280;49208;50.874;6.466;2022-09-21T16:52:26;101321.28;;;14.00;60.20
63115;BME280;49208;50.874;6.466;2022-09-21T16:54:56;101318.22;;;13.85;61.58
63115;BME280;49208;50.874;6.466;2022-09-21T16:57:22;101318.75;;;13.70;62.11
63115;BME280;49208;50.874;6.466;2022-09-21T16:59:48;101318.38;;;13.56;62.19
63115;BME280;49208;50.874;6.466;2022-09-21T17:02:14;101322.31;;;13.44;63.73
63115;BME280;49208;50.874;6.466;2022-09-21T17:04:40;101319.19;;;13.31;63.51
63115;BME280;49208;50.874;6.466;2022-09-21T17:07:05;101320.41;;;13.19;64.08
63115;BME280;49208;50.874;6.466;2022-09-21T17:09:33;101320.81;;;13.07;64.58
63115;BME280;49208;50.874;6.466;2022-09-21T17:12:00;101317.59;;;12.96;65.30
63115;BME280;49208;50.874;6.466;2022-09-21T17:14:31;101315.28;;;12.85;66.74
63115;BME280;49208;50.874;6.466;2022-09-21T17:17:02;101324.50;;;12.74;66.65
63115;BME280;49208;50.874;6.466;2022-09-21T17:19:31;101319.38;;;12.67;66.46
63115;BME280;49208;50.874;6.466;2022-09-21T17:21:57;101320.63;;;12.55;67.16
63115;BME280;49208;50.874;6.466;2022-09-21T17:24:24;101313.91;;;12.42;68.98
63115;BME280;49208;50.874;6.466;2022-09-21T17:26:50;101327.56;;;12.31;69.59
63115;BME280;49208;50.874;6.466;2022-09-21T17:29:24;101327.06;;;12.17;70.18
63115;BME280;49208;50.874;6.466;2022-09-21T17:31:51;101323.81;;;12.05;70.05
63115;BME280;49208;50.874;6.466;2022-09-21T17:34:20;101331.16;;;11.97;70.42
63115;BME280;49208;50.874;6.466;2022-09-21T17:36:46;101327.81;;;11.89;70.19
63115;BME280;49208;50.874;6.466;2022-09-21T17:39:12;101328.88;;;11.82;70.64
63115;BME280;49208;50.874;6.466;2022-09-21T17:47:28;101334.13;;;11.50;72.44
63115;BME280;49208;50.874;6.466;2022-09-21T17:50:27;101329.09;;;11.38;73.18
63115;BME280;49208;50.874;6.466;2022-09-21T17:52:54;101327.53;;;11.29;73.43
63115;BME280;49208;50.874;6.466;2022-09-21T17:55:48;101336.59;;;11.22;73.92
63115;BME280;49208;50.874;6.466;2022-09-21T17:58:37;101331.41;;;11.16;74.64
63115;BME280;49208;50.874;6.466;2022-09-21T18:03:38;101340.63;;;11.01;76.44
63115;BME280;49208;50.874;6.466;2022-09-21T18:06:09;101339.94;;;10.93;76.84
63115;BME280;49208;50.874;6.466;2022-09-21T18:08:37;101343.72;;;10.83;77.55
63115;BME280;49208;50.874;6.466;2022-09-21T18:11:26;101342.22;;;10.71;77.69
63115;BME280;49208;50.874;6.466;2022-09-21T18:19:59;101349.06;;;10.39;79.30
63115;BME280;49208;50.874;6.466;2022-09-21T18:24:59;101343.09;;;10.25;79.80
63115;BME280;49208;50.874;6.466;2022-09-21T18:27:25;101354.72;;;10.21;80.04
63115;BME280;49208;50.874;6.466;2022-09-21T18:29:51;101353.94;;;10.16;80.51
63115;BME280;49208;50.874;6.466;2022-09-21T18:38:30;101351.75;;;9.91;82.24
63115;BME280;49208;50.874;6.466;2022-09-21T18:44:26;101348.44;;;9.77;82.98
63115;BME280;49208;50.874;6.466;2022-09-21T18:47:48;101352.09;;;9.71;82.92
63115;BME280;49208;50.874;6.466;2022-09-21T18:50:18;101355.69;;;9.67;83.39
63115;BME280;49208;50.874;6.466;2022-09-21T18:55:24;101355.00;;;9.57;84.14
63115;BME280;49208;50.874;6.466;2022-09-21T18:57:56;101347.13;;;9.53;84.35
63115;BME280;49208;50.874;6.466;2022-09-21T19:00:26;101347.16;;;9.48;85.13
63115;BME280;49208;50.874;6.466;2022-09-21T19:03:00;101354.34;;;9.43;85.00
63115;BME280;49208;50.874;6.466;2022-09-21T19:05:26;101357.09;;;9.37;85.49
63115;BME280;49208;50.874;6.466;2022-09-21T19:10:38;101360.81;;;9.26;85.92
63115;BME280;49208;50.874;6.466;2022-09-21T19:13:34;101360.91;;;9.20;86.52
63115;BME280;49208;50.874;6.466;2022-09-21T19:18:59;101351.31;;;9.08;87.56
63115;BME280;49208;50.874;6.466;2022-09-21T19:30:08;101364.00;;;8.89;89.43
63115;BME280;49208;50.874;6.466;2022-09-21T19:37:41;101351.81;;;8.76;89.68
63115;BME280;49208;50.874;6.466;2022-09-21T19:40:08;101358.91;;;8.73;90.40
63115;BME280;49208;50.874;6.466;2022-09-21T19:42:54;101362.50;;;8.68;90.34
63115;BME280;49208;50.874;6.466;2022-09-21T19:48:15;101363.50;;;8.60;90.81
63115;BME280;49208;50.874;6.466;2022-09-21T19:50:51;101358.28;;;8.55;90.97
63115;BME280;49208;50.874;6.466;2022-09-21T19:53:19;101364.47;;;8.54;91.63
63115;BME280;49208;50.874;6.466;2022-09-21T19:56:08;101372.44;;;8.53;91.79
63115;BME280;49208;50.874;6.466;2022-09-21T19:58:55;101360.09;;;8.50;91.82
63115;BME280;49208;50.874;6.466;2022-09-21T20:01:43;101363.66;;;8.46;92.04
63115;BME280;49208;50.874;6.466;2022-09-21T20:04:22;101364.59;;;8.43;92.41
63115;BME280;49208;50.874;6.466;2022-09-21T20:06:56;101367.25;;;8.42;92.81
63115;BME280;49208;50.874;6.466;2022-09-21T20:09:31;101364.63;;;8.39;92.28
63115;BME280;49208;50.874;6.466;2022-09-21T20:12:15;101369.06;;;8.37;92.09
63115;BME280;49208;50.874;6.466;2022-09-21T20:15:09;101364.63;;;8.37;92.33
63115;BME280;49208;50.874;6.466;2022-09-21T20:17:43;101369.94;;;8.37;92.72
63115;BME280;49208;50.874;6.466;2022-09-21T20:22:39;101373.47;;;8.36;92.73
63115;BME280;49208;50.874;6.466;2022-09-21T20:27:42;101368.28;;;8.27;92.90
63115;BME280;49208;50.874;6.466;2022-09-21T20:30:11;101366.56;;;8.21;92.92
63115;BME280;49208;50.874;6.466;2022-09-21T20:32:43;101371.06;;;8.16;93.44
63115;BME280;49208;50.874;6.466;2022-09-21T20:35:20;101366.63;;;8.15;94.32
63115;BME280;49208;50.874;6.466;2022-09-21T20:37:45;101367.56;;;8.13;93.97
63115;BME280;49208;50.874;6.466;2022-09-21T20:40:12;101367.63;;;8.08;94.00
63115;BME280;49208;50.874;6.466;2022-09-21T20:42:39;101362.31;;;8.05;94.37
63115;BME280;49208;50.874;6.466;2022-09-21T20:45:06;101361.50;;;8.01;94.00
63115;BME280;49208;50.874;6.466;2022-09-21T20:47:32;101363.31;;;7.96;94.25
63115;BME280;49208;50.874;6.466;2022-09-21T20:49:58;101359.78;;;7.94;94.68
63115;BME280;49208;50.874;6.466;2022-09-21T20:52:23;101369.53;;;7.90;94.53
63115;BME280;49208;50.874;6.466;2022-09-21T20:54:48;101364.31;;;7.84;94.66
63115;BME280;49208;50.874;6.466;2022-09-21T20:57:14;101365.25;;;7.80;94.97
63115;BME280;49208;50.874;6.466;2022-09-21T20:59:40;101360.81;;;7.78;94.85
63115;BME280;49208;50.874;6.466;2022-09-21T21:02:06;101360.88;;;7.75;94.98
63115;BME280;49208;50.874;6.466;2022-09-21T21:04:34;101359.13;;;7.71;95.43
63115;BME280;49208;50.874;6.466;2022-09-21T21:07:00;101352.09;;;7.68;95.78
63115;BME280;49208;50.874;6.466;2022-09-21T21:09:25;101355.63;;;7.67;95.97
63115;BME280;49208;50.874;6.466;2022-09-21T21:11:52;101353.91;;;7.64;95.93
63115;BME280;49208;50.874;6.466;2022-09-21T21:14:18;101353.03;;;7.61;96.11
63115;BME280;49208;50.874;6.466;2022-09-21T21:16:43;101358.38;;;7.56;96.04
63115;BME280;49208;50.874;6.466;2022-09-21T21:19:08;101356.66;;;7.54;95.88
63115;BME280;49208;50.874;6.466;2022-09-21T21:21:34;101357.56;;;7.49;96.25
63115;BME280;49208;50.874;6.466;2022-09-21T21:24:00;101359.34;;;7.46;95.89
63115;BME280;49208;50.874;6.466;2022-09-21T21:26:43;101354.97;;;7.42;96.03
63115;BME280;49208;50.874;6.466;2022-09-21T21:29:09;101360.31;;;7.39;96.08
63115;BME280;49208;50.874;6.466;2022-09-21T21:31:35;101363.81;;;7.36;96.54
63115;BME280;49208;50.874;6.466;2022-09-21T21:34:00;101364.72;;;7.35;96.63
63115;BME280;49208;50.874;6.466;2022-09-21T21:36:25;101370.03;;;7.32;96.54
63115;BME280;49208;50.874;6.466;2022-09-21T21:38:51;101367.44;;;7.29;96.59
63115;BME280;49208;50.874;6.466;2022-09-21T21:41:16;101370.94;;;7.28;96.71
63115;BME280;49208;50.874;6.466;2022-09-21T21:43:42;101364.78;;;7.26;96.82
63115;BME280;49208;50.874;6.466;2022-09-21T21:46:08;101368.34;;;7.25;96.94
63115;BME280;49208;50.874;6.466;2022-09-21T21:48:35;101368.34;;;7.22;97.05
63115;BME280;49208;50.874;6.466;2022-09-21T21:51:01;101363.94;;;7.21;97.13
63115;BME280;49208;50.874;6.466;2022-09-21T21:53:27;101363.97;;;7.19;97.36
63115;BME280;49208;50.874;6.466;2022-09-21T21:56:07;101367.50;;;7.17;97.40